FMCZFMNN

Guest
Details From FMCZ - Dzaoudzi Pamandzi
To FMNN - Fascene
Flight Number -
Tags Decoded
Created
Modified
Stats Distance 180 nm / 333 km
Max Altitude 0 ft / 0 m
Waypoints 2
Social Downloads 2
Likes 0
Share VATSIM

Download

Looking for another format? Having issues loading an existing format? Contact us
Advertisement - Login to hide

Notes

Decoded

Route

FMCZ FMNN

ID Type Via Altitude Latitude Longitude Leg Dist Tot Dist Heading (true) Name
O FMCZ APT - 0 ft / 0 m -12.80219˚ 45.27792˚ - 0 nm - -
O FMNN APT - 0 ft / 0 m -13.31932˚ 48.30791˚ 179 nm 179 nm 100° / 100° -

Altitude Profile

Advertisement - Login to hide

Weather


0- 5 10 15 20 25 30 35+ Temperature / ° C

Clouds and Precipitation
Forecast for 2017-12-15 18:00 UTC. Updated an hour ago

Ground ~20,000 ft ~40,000 ft Winds

FMCZ

Details ICAO FMCZ (DZA)
Name Dzaoudzi Pamandzi
Region Comoros, Mayotte, Réunion and Madagascar
Timezone Unknown (UTC+0.0)
Stats Elevation 23 ft / 7 m (AMSL)
Location -12.809439° 45.282224°
Runways 1
Magnetic Variation 8.134° W

METAR

FMCZ 151400Z 24003KT 9999 FEW022TCU SCT053 BKN150 28/25 Q1009 NOSIG

Decode

TAF

Not found

Departure Runways

ID Width Length Bearing (true) Bearing (mag) Surface Threshold Offset Overrun Length
16 92 ft / 28 m 6,109 ft / 1,862 m 149.93° 158.06° Asphalt 250 ft / 76 m 250 ft / 76 m
34 92 ft / 28 m 6,109 ft / 1,862 m 329.93° 338.06° Asphalt 0 ft / 0 m 82 ft / 25 m

FMNN

Details ICAO FMNN (NOS)
Name FASCENE
Region Comoros, Mayotte, Réunion and Madagascar
Timezone Indian/Antananarivo (UTC+3.0)
Stats Elevation 36 ft / 11 m (AMSL)
Location -13.312067° 48.314821°
Runways 1
Magnetic Variation 9.465° W

METAR

FMNN 151400Z 22002KT TSRA FEW007 BKN017CB 26/25 Q1010

Decode

TAF

Not found

Destination Runways

ID Width Length Bearing (true) Bearing (mag) Surface Threshold Offset Overrun Length
05 148 ft / 45 m 7,220 ft / 2,201 m 42.86° 52.33° Asphalt 0 ft / 0 m 164 ft / 50 m
23 148 ft / 45 m 7,220 ft / 2,201 m 222.85° 232.32° Asphalt 0 ft / 0 m 197 ft / 60 m

Popular Alternatives